»·PEaware :: N74TW KAVX-KSAN

N74TW :: KAVX-KSAN

FLIGHT INFORMATION

Flight Status: Arrived
Operator: Privately registered:
United States
More flights under this callsign
Pilot: Kelly C. (19495)
Aircraft: BEECH AIRCRAFT BARON
(BE58)
More flights by this aircraft type
Origin: KAVX Catalina
United States
Destination: KSAN San Diego Intl-Lindbergh
United States
More flights between these airports :: More routes between these airports
Route: +SXC V208 OCN V23 MZB
File this flight plan on PilotEdge
Remarks: I-8
Altitude:
(Current/Filed)
7,000ft
Speed:
(Current/Filed)
160kts
Departed: 15-Jan-20 05:14 PM
Arrived: 15-Jan-20 06:01 PM
Distance/Time
Traveled:
74nm/0:47
Distance/Time
To Go:
Arrived

Flight Plot

Page will automatically refresh every two minutes.


Map Options




Map Legend


Flown Route
Filed Route
Departure Airport
Arrival Airport
Navaid (VOR, NDB)
Fix

Horizontal Profiles

Position Reports

Time Latitude Longitude Heading Altitude Ground
Speed
15-Jan-20 17:01 33.403881 -118.414878 254 1569ft 0kts
15-Jan-20 17:02 33.403881 -118.414878 254 1569ft 0kts
15-Jan-20 17:02 33.403881 -118.414878 254 1569ft 0kts
15-Jan-20 17:04 33.403881 -118.414878 254 1569ft 0kts
15-Jan-20 17:05 33.403881 -118.414878 254 1569ft 0kts
15-Jan-20 17:06 33.403881 -118.414878 254 1569ft 0kts
15-Jan-20 17:06 33.403881 -118.414878 254 1569ft 0kts
15-Jan-20 17:08 33.403881 -118.414878 254 1569ft 0kts
15-Jan-20 17:08 33.403881 -118.414878 254 1569ft 0kts
15-Jan-20 17:09 33.404895 -118.415052 22 1569ft 13kts
15-Jan-20 17:10 33.406770 -118.412081 55 1569ft 13kts
15-Jan-20 17:11 33.407137 -118.411461 53 1569ft 0kts
15-Jan-20 17:12 33.407283 -118.411873 235 1569ft 3kts
15-Jan-20 17:13 33.390340 -118.439340 231 2205ft 133kts
15-Jan-20 17:14 33.363610 -118.473807 191 3229ft 152kts
15-Jan-20 17:15 33.357208 -118.439220 43 4296ft 156kts
15-Jan-20 17:16 33.371435 -118.392319 98 4999ft 168kts
15-Jan-20 17:17 33.364223 -118.335713 99 5000ft 172kts
15-Jan-20 17:18 33.356705 -118.278541 99 4999ft 173kts
15-Jan-20 17:19 33.349213 -118.221510 99 4999ft 173kts
15-Jan-20 17:20 33.341683 -118.164381 99 4999ft 173kts
15-Jan-20 17:21 33.334148 -118.107432 99 4999ft 172kts
15-Jan-20 17:22 33.326606 -118.050575 99 5009ft 172kts
15-Jan-20 17:23 33.319037 -117.993693 99 5010ft 172kts
15-Jan-20 17:24 33.311486 -117.937274 99 5009ft 171kts
15-Jan-20 17:25 33.303867 -117.880497 99 5009ft 171kts
15-Jan-20 17:26 33.296260 -117.823961 99 5009ft 171kts
15-Jan-20 17:27 33.288675 -117.767445 99 5009ft 171kts
15-Jan-20 17:28 33.280583 -117.710820 100 5009ft 171kts
15-Jan-20 17:29 33.271953 -117.654263 100 5009ft 171kts
15-Jan-20 17:30 33.263329 -117.597333 100 5009ft 171kts
15-Jan-20 17:31 33.255458 -117.539950 98 5009ft 171kts
15-Jan-20 17:32 33.248602 -117.481788 98 4990ft 171kts
15-Jan-20 17:33 33.239075 -117.423493 124 4988ft 170kts
15-Jan-20 17:34 33.195092 -117.398396 160 4991ft 169kts
15-Jan-20 17:35 33.149703 -117.379223 160 4991ft 169kts
15-Jan-20 17:36 33.103837 -117.359931 160 4991ft 172kts
15-Jan-20 17:37 33.056701 -117.340148 161 4991ft 174kts
15-Jan-20 17:38 33.009151 -117.320202 161 4990ft 175kts
15-Jan-20 17:39 32.960766 -117.299908 161 4990ft 175kts
15-Jan-20 17:40 32.912557 -117.279751 161 4986ft 170kts
15-Jan-20 17:41 32.868483 -117.261295 161 4989ft 165kts
15-Jan-20 17:42 32.828996 -117.238460 111 4996ft 162kts
15-Jan-20 17:43 32.819839 -117.186089 101 4990ft 163kts
15-Jan-20 17:44 32.811464 -117.133376 101 4990ft 163kts
15-Jan-20 17:45 32.803002 -117.079844 100 4987ft 163kts
15-Jan-20 17:46 32.794546 -117.026243 100 4981ft 164kts
15-Jan-20 17:47 32.785892 -116.971267 100 4974ft 164kts
15-Jan-20 17:48 32.777229 -116.916118 100 4968ft 164kts
15-Jan-20 17:49 32.768713 -116.861792 100 4963ft 164kts
15-Jan-20 17:50 32.732191 -116.847881 190 4964ft 159kts
15-Jan-20 17:51 32.687797 -116.857858 198 4221ft 157kts
15-Jan-20 17:52 32.669906 -116.902683 266 3966ft 144kts
15-Jan-20 17:53 32.676395 -116.953488 284 3645ft 169kts
15-Jan-20 17:54 32.688994 -117.006557 286 3292ft 162kts
15-Jan-20 17:55 32.699316 -117.049062 286 2680ft 112kts
15-Jan-20 17:56 32.708536 -117.086918 286 2019ft 124kts
15-Jan-20 17:57 32.717461 -117.124283 285 1268ft 113kts
15-Jan-20 17:58 32.725681 -117.158311 287 487ft 105kts
15-Jan-20 17:59 32.732665 -117.186097 284 17ft 44kts
15-Jan-20 18:00 32.734098 -117.187961 47 18ft 6kts
15-Jan-20 18:01 32.732958 -117.182379 105 17ft 18kts
15-Jan-20 18:02 32.732528 -117.177186 112 21ft 8kts
15-Jan-20 18:03 32.732358 -117.177113 217 21ft 0kts
15-Jan-20 18:04 32.732358 -117.177113 217 21ft 0kts
15-Jan-20 18:05 32.732358 -117.177113 217 21ft 0kts
15-Jan-20 18:06 32.732358 -117.177113 217 21ft 0kts
15-Jan-20 18:07 32.732358 -117.177113 217 21ft 0kts
15-Jan-20 18:08 32.732358 -117.177113 217 21ft 0kts
15-Jan-20 18:09 32.732358 -117.177113 217 21ft 0kts
15-Jan-20 18:10 32.732358 -117.177113 217 21ft 0kts
15-Jan-20 18:11 32.732358 -117.177113 217 21ft 0kts
15-Jan-20 18:12 32.732358 -117.177113 217 21ft 0kts
15-Jan-20 18:13 32.732358 -117.177113 217 21ft 0kts
15-Jan-20 18:14 32.732358 -117.177113 217 21ft 0kts

Navigation Log

Ident Type
Flight plan parsing failed, navigation log unavailable